Time;durP1;ratioP1;P1;durP2;ratioP2;P2;SDS_P1;SDS_P2;PMS_P1;PMS_P2;Temp;Humidity;BMP_temperature;BMP_pressure;BME280_temperature;BME280_humidity;BME280_pressure;Samples;Min_cycle;Max_cycle;Signal;HPM_P1;HPM_P2
2023/04/18 00:02:00;;;;;;;4.50;3.05;;;;;;;12.69;63.58;94410.25;5025266;28;20470;-79
2023/04/18 00:04:25;;;;;;;3.40;2.53;;;;;;;12.72;63.27;94419.56;5028771;28;20032;-80
2023/04/18 00:06:51;;;;;;;4.30;2.85;;;;;;;12.69;63.73;94410.25;5033465;28;20030;-79
2023/04/18 00:09:16;;;;;;;4.47;2.80;;;;;;;12.71;63.73;94407.00;5024325;28;20040;-80
2023/04/18 00:11:42;;;;;;;3.75;2.90;;;;;;;12.71;63.86;94407.78;5026377;28;20037;-80
2023/04/18 00:14:09;;;;;;;5.13;2.88;;;;;;;12.69;63.99;94413.00;5024566;28;20123;-80
2023/04/18 00:16:35;;;;;;;3.90;3.03;;;;;;;12.69;63.95;94409.47;5024326;28;20029;-80
2023/04/18 00:19:01;;;;;;;3.55;2.80;;;;;;;12.69;64.11;94415.75;5024940;28;20109;-80
2023/04/18 00:21:26;;;;;;;4.63;3.00;;;;;;;12.70;63.91;94416.53;5023974;28;20029;-79
2023/04/18 00:23:52;;;;;;;3.60;2.95;;;;;;;12.69;63.90;94410.25;5024753;28;20040;-80
2023/04/18 00:26:17;;;;;;;6.20;3.33;;;;;;;12.72;63.75;94416.81;5025135;28;20025;-78
2023/04/18 00:28:43;;;;;;;4.00;2.95;;;;;;;12.71;63.80;94416.06;5026373;28;20025;-79
2023/04/18 00:31:08;;;;;;;6.25;3.08;;;;;;;12.68;63.64;94414.22;5025080;28;20031;-80
2023/04/18 00:33:33;;;;;;;4.68;2.78;;;;;;;12.68;63.77;94410.72;5025789;28;20025;-80
2023/04/18 00:35:59;;;;;;;3.55;2.60;;;;;;;12.66;63.94;94405.63;5025439;28;20048;-80
2023/04/18 00:38:24;;;;;;;3.65;2.42;;;;;;;12.71;63.79;94410.53;5025145;28;20031;-80
2023/04/18 00:40:50;;;;;;;5.43;2.53;;;;;;;12.70;63.74;94411.00;5024293;28;20047;-80
2023/04/18 00:43:15;;;;;;;3.30;2.50;;;;;;;12.69;64.04;94407.47;5024564;28;20024;-80
2023/04/18 00:45:41;;;;;;;4.38;2.78;;;;;;;12.70;64.06;94403.50;5026130;28;20438;-80
2023/04/18 00:48:06;;;;;;;4.90;3.03;;;;;;;12.69;64.39;94404.72;5024888;28;20411;-80
2023/04/18 00:50:32;;;;;;;5.25;3.58;;;;;;;12.68;64.66;94405.97;5024601;28;20022;-80
2023/04/18 00:52:57;;;;;;;4.88;3.30;;;;;;;12.69;65.15;94398.44;5023513;28;20490;-80
2023/04/18 00:55:23;;;;;;;7.80;4.25;;;;;;;12.66;65.07;94393.84;5024022;28;20071;-80
2023/04/18 00:57:49;;;;;;;5.90;4.18;;;;;;;12.63;64.98;94395.56;5009298;28;20017;-80
2023/04/18 01:00:15;;;;;;;8.63;5.10;;;;;;;12.67;65.18;94400.88;5014441;28;20045;-81
2023/04/18 01:02:40;;;;;;;9.75;6.65;;;;;;;12.60;64.96;94395.69;5025156;28;20053;-81
2023/04/18 01:05:07;;;;;;;9.55;6.63;;;;;;;12.63;65.35;94400.31;5023272;28;20103;-81
2023/04/18 01:07:36;;;;;;;13.65;7.68;;;;;;;12.63;65.41;94403.06;5023889;28;20036;-81
2023/04/18 01:10:02;;;;;;;10.55;7.03;;;;;;;12.62;65.35;94387.75;5023199;28;20025;-81
2023/04/18 01:12:27;;;;;;;10.45;8.55;;;;;;;12.59;65.35;94391.41;5024052;28;20025;-80
2023/04/18 01:14:53;;;;;;;12.27;8.98;;;;;;;12.58;65.22;94385.16;5023851;28;20053;-80
2023/04/18 01:17:18;;;;;;;10.50;7.85;;;;;;;12.55;65.05;94391.56;5024354;28;20107;-80
2023/04/18 01:19:47;;;;;;;12.65;8.00;;;;;;;12.56;65.13;94395.09;5025481;28;20033;-81
2023/04/18 01:22:13;;;;;;;10.52;7.82;;;;;;;12.56;65.08;94389.56;5023076;28;20045;-81
2023/04/18 01:24:39;;;;;;;11.40;7.57;;;;;;;12.53;65.22;94396.03;5023942;28;20030;-80
2023/04/18 01:27:04;;;;;;;10.20;8.25;;;;;;;12.46;64.95;94386.84;5022788;28;20025;-80
2023/04/18 01:29:30;;;;;;;10.27;8.10;;;;;;;12.47;64.87;94393.88;5023823;28;20040;-81
2023/04/18 01:31:56;;;;;;;10.00;8.63;;;;;;;12.47;65.13;94387.63;5024819;28;20025;-81
2023/04/18 01:34:21;;;;;;;10.90;8.48;;;;;;;12.46;65.12;94391.59;5023012;28;20033;-81
2023/04/18 01:36:47;;;;;;;11.25;8.75;;;;;;;12.45;65.20;94396.34;5025348;28;20540;-81
2023/04/18 01:39:13;;;;;;;11.52;8.32;;;;;;;12.41;65.48;94390.22;5022314;28;20030;-81
2023/04/18 01:41:39;;;;;;;11.82;8.57;;;;;;;12.39;65.63;94391.94;5023587;28;20092;-81
2023/04/18 01:44:05;;;;;;;11.18;8.60;;;;;;;12.40;65.80;94391.47;5022586;28;20022;-81
2023/04/18 01:46:30;;;;;;;11.75;8.38;;;;;;;12.42;65.99;94394.50;5024920;28;20032;-82
2023/04/18 01:48:56;;;;;;;11.80;9.27;;;;;;;12.42;66.01;94383.47;5024414;28;20030;-81
2023/04/18 01:51:22;;;;;;;13.77;9.43;;;;;;;12.38;65.96;94379.34;5023594;28;20030;-81
2023/04/18 01:53:47;;;;;;;12.60;9.70;;;;;;;12.34;66.31;94378.75;5032744;28;20414;-80
2023/04/18 01:56:13;;;;;;;12.52;9.43;;;;;;;12.35;66.02;94378.28;5025274;28;20080;-81
2023/04/18 01:58:38;;;;;;;10.77;8.68;;;;;;;12.38;66.10;94384.84;5024659;28;20079;-79
2023/04/18 02:01:04;;;;;;;10.65;8.77;;;;;;;12.38;66.11;94382.88;5022651;28;20092;-80
2023/04/18 02:03:29;;;;;;;13.68;10.13;;;;;;;12.40;66.39;94382.44;5023480;28;20365;-80
2023/04/18 02:05:54;;;;;;;13.50;10.40;;;;;;;12.38;66.44;94382.88;5022754;28;20017;-80
2023/04/18 02:08:20;;;;;;;12.43;9.55;;;;;;;12.39;66.46;94378.91;5024573;28;20507;-81
2023/04/18 02:10:45;;;;;;;12.18;9.63;;;;;;;12.39;66.77;94380.91;5024234;28;20430;-80
2023/04/18 02:13:11;;;;;;;13.25;10.35;;;;;;;12.38;66.66;94384.84;5023042;28;20024;-81
2023/04/18 02:15:36;;;;;;;13.35;10.32;;;;;;;12.36;66.56;94384.56;5022898;28;20502;-81
2023/04/18 02:18:02;;;;;;;15.85;10.90;;;;;;;12.33;66.61;94389.03;5022632;28;20411;-80
2023/04/18 02:20:32;;;;;;;13.60;10.57;;;;;;;12.33;66.71;94388.22;5025248;28;20032;-81
2023/04/18 02:23:01;;;;;;;14.40;11.13;;;;;;;12.32;66.65;94383.94;5010561;28;20429;-81
2023/04/18 02:25:27;;;;;;;15.70;11.20;;;;;;;12.29;66.85;94393.91;5010814;28;20032;-81
2023/04/18 02:27:54;;;;;;;14.02;10.77;;;;;;;12.29;66.84;94387.66;5026699;28;20113;-82
2023/04/18 02:30:19;;;;;;;13.73;10.55;;;;;;;12.27;66.92;94396.34;5027233;28;20029;-84
2023/04/18 02:32:45;;;;;;;13.20;11.18;;;;;;;12.17;66.89;94397.59;5010534;28;20029;-82
2023/04/18 02:35:11;;;;;;;13.38;10.10;;;;;;;12.12;67.19;94398.22;5027884;28;20037;-82
2023/04/18 02:37:37;;;;;;;14.60;10.25;;;;;;;12.08;67.38;94395.59;5026905;28;20029;-81
2023/04/18 02:40:06;;;;;;;13.68;10.85;;;;;;;12.08;67.50;94395.59;5026532;28;20014;-82
2023/04/18 02:42:31;;;;;;;14.07;10.82;;;;;;;12.10;67.50;94395.13;5026815;28;20480;-81
2023/04/18 02:44:57;;;;;;;16.10;10.82;;;;;;;12.10;67.39;94400.66;5027691;28;20026;-82
2023/04/18 02:47:22;;;;;;;14.63;10.07;;;;;;;12.14;67.59;94402.03;5037154;28;20031;-82
2023/04/18 02:49:47;;;;;;;15.52;10.38;;;;;;;12.11;67.47;94393.94;5028339;28;20159;-82
2023/04/18 02:52:13;;;;;;;14.00;10.93;;;;;;;12.17;67.19;94398.38;5028068;28;20036;-83
2023/04/18 02:54:38;;;;;;;13.82;10.85;;;;;;;12.17;67.27;94398.38;5026719;28;20030;-83
2023/04/18 02:57:04;;;;;;;15.60;11.27;;;;;;;12.18;67.07;94396.38;5025728;28;20026;-83
2023/04/18 02:59:30;;;;;;;13.20;10.82;;;;;;;12.11;67.19;94391.94;5026521;28;20482;-81
2023/04/18 03:01:56;;;;;;;15.07;10.52;;;;;;;12.16;67.08;94398.84;5027306;28;20026;-81
2023/04/18 03:04:21;;;;;;;14.02;11.10;;;;;;;12.14;67.21;94396.53;5028271;28;20029;-81
2023/04/18 03:06:47;;;;;;;12.05;10.05;;;;;;;12.19;67.10;94397.91;5027165;28;20044;-81
2023/04/18 03:09:13;;;;;;;19.02;12.80;;;;;;;12.22;66.97;94405.25;5027374;28;20578;-82
2023/04/18 03:11:39;;;;;;;18.17;12.23;;;;;;;12.21;67.04;94401.75;5027229;28;20543;-82
2023/04/18 03:14:04;;;;;;;15.45;11.68;;;;;;;12.18;67.12;94397.13;5027126;28;20021;-80
2023/04/18 03:16:31;;;;;;;17.27;11.70;;;;;;;12.19;67.25;94397.91;5027941;28;20021;-81
2023/04/18 03:18:56;;;;;;;16.52;12.10;;;;;;;12.21;66.96;94400.94;5025179;28;20492;-80
2023/04/18 03:21:22;;;;;;;16.83;13.07;;;;;;;12.22;66.87;94413.53;5026204;28;20056;-81
2023/04/18 03:23:47;;;;;;;15.77;12.40;;;;;;;12.17;67.12;94417.66;5008391;28;20480;-81
2023/04/18 03:26:13;;;;;;;17.50;13.30;;;;;;;12.19;67.08;94422.69;5026027;28;20246;-80
2023/04/18 03:28:39;;;;;;;17.38;13.57;;;;;;;12.22;67.32;94414.28;5027964;28;20480;-82
2023/04/18 03:31:04;;;;;;;18.10;13.73;;;;;;;12.22;67.29;94422.56;5026731;28;20021;-81
2023/04/18 03:33:30;;;;;;;18.30;13.82;;;;;;;12.25;67.23;94428.38;5025888;28;20495;-81
2023/04/18 03:35:55;;;;;;;19.40;14.25;;;;;;;12.24;67.34;94430.34;5025126;28;20050;-81
2023/04/18 03:38:20;;;;;;;18.08;13.70;;;;;;;12.24;67.27;94435.88;5027400;28;20440;-81
2023/04/18 03:40:46;;;;;;;16.63;13.43;;;;;;;12.22;67.19;94428.06;5032504;28;20471;-82
2023/04/18 03:43:11;;;;;;;18.90;15.07;;;;;;;12.21;67.12;94425.75;5029783;28;20497;-81
2023/04/18 03:45:37;;;;;;;17.70;13.13;;;;;;;12.18;67.00;94430.22;5024953;28;20032;-81
2023/04/18 03:48:02;;;;;;;16.48;12.43;;;;;;;12.21;66.92;94431.25;5027090;28;20030;-81
2023/04/18 03:50:28;;;;;;;18.70;12.90;;;;;;;12.19;67.15;94420.72;5025185;28;20427;-80
2023/04/18 03:52:53;;;;;;;16.70;12.60;;;;;;;12.23;67.06;94426.06;5026361;28;20033;-80
2023/04/18 03:55:19;;;;;;;16.35;12.55;;;;;;;12.24;67.19;94424.84;5025709;28;20056;-81
2023/04/18 03:57:45;;;;;;;17.65;12.68;;;;;;;12.24;67.21;94430.34;5025075;28;20021;-81
2023/04/18 04:00:11;;;;;;;16.13;11.88;;;;;;;12.24;67.27;94430.34;5025459;28;20073;-83
2023/04/18 04:02:37;;;;;;;14.20;12.23;;;;;;;12.23;67.12;94429.59;5024577;28;20518;-83
2023/04/18 04:05:03;;;;;;;16.05;12.50;;;;;;;12.23;67.05;94435.09;5008876;28;20033;-83
2023/04/18 04:07:30;;;;;;;14.70;10.85;;;;;;;12.16;67.22;94429.91;5024571;28;20021;-82
2023/04/18 04:09:57;;;;;;;14.38;11.45;;;;;;;12.18;66.91;94427.44;5008425;28;20033;-82
2023/04/18 04:12:22;;;;;;;14.60;10.68;;;;;;;12.19;66.83;94434.50;5024972;28;20450;-82
2023/04/18 04:14:48;;;;;;;13.02;11.60;;;;;;;12.16;66.80;94434.66;5025640;28;20029;-83
2023/04/18 04:17:13;;;;;;;12.65;10.55;;;;;;;12.15;66.90;94435.84;5008891;28;20024;-84
2023/04/18 04:19:39;;;;;;;13.13;10.20;;;;;;;12.16;67.20;94438.19;5025460;28;20071;-79
2023/04/18 04:22:04;;;;;;;12.55;10.50;;;;;;;12.16;67.06;94440.16;5026144;28;20045;-83
2023/04/18 04:24:32;;;;;;;15.00;11.38;;;;;;;12.04;67.01;94432.78;5024332;28;20033;-83
2023/04/18 04:26:57;;;;;;;13.63;11.90;;;;;;;12.10;66.96;94437.25;5024899;28;20029;-82
2023/04/18 04:29:23;;;;;;;15.05;12.10;;;;;;;12.15;67.15;94444.88;5025948;28;20025;-83
2023/04/18 04:31:48;;;;;;;16.98;13.43;;;;;;;12.19;67.28;94447.50;5024039;28;20021;-82
2023/04/18 04:34:15;;;;;;;16.90;13.05;;;;;;;12.18;67.19;94449.50;5029911;28;20033;-82
2023/04/18 04:36:41;;;;;;;16.95;13.77;;;;;;;12.21;67.11;94445.84;5020388;28;20025;-81
2023/04/18 04:39:08;;;;;;;20.15;16.15;;;;;;;12.26;66.96;94447.19;5032126;28;20033;-83
2023/04/18 04:41:36;;;;;;;23.27;17.60;;;;;;;12.31;67.13;94452.09;5027984;28;20025;-81
2023/04/18 04:44:03;;;;;;;25.75;20.02;;;;;;;12.35;67.11;94446.44;5025673;28;20159;-81
2023/04/18 04:46:29;;;;;;;28.00;21.88;;;;;;;12.38;67.19;94457.28;5023846;28;20095;-82
2023/04/18 04:48:55;;;;;;;25.25;18.83;;;;;;;12.32;67.11;94452.84;5023899;28;20480;-81
2023/04/18 04:51:20;;;;;;;22.63;17.13;;;;;;;12.44;66.83;94460.19;5025037;28;20081;-83
2023/04/18 04:53:46;;;;;;;20.92;14.88;;;;;;;12.39;66.50;94458.84;5025315;28;20030;-81
2023/04/18 04:56:11;;;;;;;18.88;13.85;;;;;;;12.41;66.09;94461.91;5024160;28;20426;-81
2023/04/18 04:58:37;;;;;;;19.30;14.82;;;;;;;12.45;65.96;94467.25;5023196;28;20426;-82
2023/04/18 05:01:02;;;;;;;16.23;13.48;;;;;;;12.50;66.03;94469.38;5025379;28;20510;-80
2023/04/18 05:03:28;;;;;;;18.23;14.13;;;;;;;12.45;65.88;94457.00;5023383;28;20025;-82
2023/04/18 05:05:53;;;;;;;16.65;12.93;;;;;;;12.54;65.52;94469.25;5023851;28;20484;-81
2023/04/18 05:08:18;;;;;;;18.23;14.25;;;;;;;12.59;65.84;94463.88;5023329;28;20556;-81
2023/04/18 05:10:44;;;;;;;17.38;13.57;;;;;;;12.63;66.07;94467.25;5023490;28;20022;-82
2023/04/18 05:13:10;;;;;;;19.60;13.85;;;;;;;12.65;65.94;94473.06;5025126;28;20112;-80
2023/04/18 05:15:36;;;;;;;16.50;12.60;;;;;;;12.69;65.67;94470.16;5022862;28;20032;-81
2023/04/18 05:18:01;;;;;;;16.70;12.65;;;;;;;12.68;65.53;94474.91;5023853;28;20031;-81
2023/04/18 05:20:27;;;;;;;16.45;12.65;;;;;;;12.67;65.16;94478.91;5023106;28;20025;-81
2023/04/18 05:22:52;;;;;;;16.33;13.07;;;;;;;12.68;64.92;94479.66;5023819;28;20068;-81
2023/04/18 05:25:18;;;;;;;18.15;13.05;;;;;;;12.74;64.90;94478.56;5023055;28;20032;-80
2023/04/18 05:27:44;;;;;;;18.05;13.90;;;;;;;12.70;64.90;94471.69;5023987;28;20022;-81
2023/04/18 05:30:10;;;;;;;17.40;13.48;;;;;;;12.75;64.92;94485.59;5017371;28;20033;-81
2023/04/18 05:32:37;;;;;;;17.58;13.82;;;;;;;12.77;65.07;94482.38;5007174;28;20021;-80
2023/04/18 05:35:06;;;;;;;16.75;13.20;;;;;;;12.79;65.01;94477.19;5023854;28;20090;-81
2023/04/18 05:37:32;;;;;;;18.55;12.52;;;;;;;12.78;64.66;94486.66;5022647;28;20104;-82
2023/04/18 05:39:57;;;;;;;17.52;14.05;;;;;;;12.82;64.66;94490.03;5024836;28;20465;-81
2023/04/18 05:42:22;;;;;;;19.65;13.35;;;;;;;12.78;64.70;94481.16;5024491;28;20018;-81
2023/04/18 05:44:48;;;;;;;17.58;13.43;;;;;;;12.80;64.59;94495.25;5023537;28;20568;-81
2023/04/18 05:47:13;;;;;;;17.45;13.43;;;;;;;12.75;64.87;94488.38;5024361;28;20029;-79
2023/04/18 05:49:39;;;;;;;17.25;13.10;;;;;;;12.80;64.83;94489.75;5024417;28;20568;-79
2023/04/18 05:52:04;;;;;;;17.27;14.02;;;;;;;12.84;64.82;94481.28;5024483;28;20406;-78
2023/04/18 05:54:30;;;;;;;19.77;14.02;;;;;;;12.84;64.66;94487.56;5022259;28;20037;-78
2023/04/18 05:56:56;;;;;;;16.90;13.23;;;;;;;12.89;64.77;94480.69;5023555;28;20409;-79
2023/04/18 05:59:21;;;;;;;19.17;12.93;;;;;;;12.95;64.63;94489.84;5022165;28;20339;-76
2023/04/18 06:01:48;;;;;;;19.23;14.02;;;;;;;13.06;64.55;94492.13;5024698;28;20120;-75
2023/04/18 06:04:14;;;;;;;19.73;13.50;;;;;;;13.16;64.41;94488.13;5023678;28;20029;-80
2023/04/18 06:06:39;;;;;;;16.25;13.15;;;;;;;13.15;64.36;94487.38;5022397;28;20412;-77
2023/04/18 06:09:05;;;;;;;16.70;13.95;;;;;;;13.20;64.06;94491.50;5022349;28;20017;-78
2023/04/18 06:11:32;;;;;;;18.58;13.15;;;;;;;13.32;63.80;94487.03;5022307;28;20040;-78
2023/04/18 06:13:58;;;;;;;14.98;11.95;;;;;;;13.35;63.62;94488.88;5024788;28;20550;-77
2023/04/18 06:16:23;;;;;;;16.98;12.75;;;;;;;13.37;62.88;94494.69;5021835;28;20064;-77
2023/04/18 06:18:49;;;;;;;17.38;12.57;;;;;;;13.44;62.72;94484.09;5024584;28;20028;-79
2023/04/18 06:21:14;;;;;;;20.10;13.82;;;;;;;13.52;62.57;94487.25;5023615;28;20515;-84
2023/04/18 06:23:40;;;;;;;18.67;12.98;;;;;;;13.45;61.82;94490.38;5031347;28;20040;-79
2023/04/18 06:26:06;;;;;;;16.85;12.65;;;;;;;13.34;61.57;94487.34;5026048;28;20442;-84
2023/04/18 06:28:32;;;;;;;15.48;12.90;;;;;;;13.28;61.79;94495.47;5023295;28;20038;-81
2023/04/18 06:30:57;;;;;;;16.15;13.00;;;;;;;13.32;62.04;94481.53;5023255;28;20024;-86
2023/04/18 06:33:22;;;;;;;19.55;14.02;;;;;;;13.37;62.56;94487.19;5022049;28;20064;-80
2023/04/18 06:35:48;;;;;;;16.88;12.75;;;;;;;13.42;62.59;94483.00;5023210;28;20023;-86
2023/04/18 06:38:13;;;;;;;17.02;12.80;;;;;;;13.43;62.45;94485.31;5023332;28;20412;-81
2023/04/18 06:40:38;;;;;;;16.85;12.25;;;;;;;13.46;61.96;94492.66;5023399;28;20384;-83
2023/04/18 06:43:04;;;;;;;16.13;12.10;;;;;;;13.56;61.91;94490.63;5023975;28;20096;-81
2023/04/18 06:45:30;;;;;;;17.08;12.82;;;;;;;13.58;61.61;94490.16;5023174;28;20144;-83
2023/04/18 06:47:58;;;;;;;16.17;12.93;;;;;;;13.60;61.81;94491.22;5024260;28;20032;-81
2023/04/18 06:50:26;;;;;;;16.38;12.35;;;;;;;13.70;60.82;94489.16;5022611;28;20029;-86
2023/04/18 06:52:51;;;;;;;16.33;12.48;;;;;;;13.79;60.53;94494.66;5007006;28;20026;-83
2023/04/18 06:55:17;;;;;;;14.55;11.45;;;;;;;13.87;59.95;94486.78;5021559;28;20044;-82
2023/04/18 06:57:42;;;;;;;15.68;12.65;;;;;;;13.95;60.03;94488.75;5006654;28;20080;-85
2023/04/18 07:00:09;;;;;;;19.48;13.27;;;;;;;13.98;59.90;94496.09;5021915;28;20053;-83
2023/04/18 07:02:38;;;;;;;16.25;13.07;;;;;;;14.07;59.20;94486.97;5006194;28;20037;-84
2023/04/18 07:05:04;;;;;;;17.02;12.77;;;;;;;14.13;58.75;94496.16;5022433;28;20416;-83
2023/04/18 07:07:30;;;;;;;15.48;12.38;;;;;;;14.11;58.20;94493.09;5025449;28;20033;-84
2023/04/18 07:09:55;;;;;;;15.00;12.07;;;;;;;14.20;58.98;94500.56;5027413;28;20120;-83
2023/04/18 07:12:21;;;;;;;16.98;12.10;;;;;;;14.30;58.63;94497.28;5008745;28;20113;-83
2023/04/18 07:14:46;;;;;;;15.07;11.40;;;;;;;14.41;58.06;94495.97;5027686;28;20029;-83
2023/04/18 07:17:12;;;;;;;14.32;10.98;;;;;;;14.51;57.46;94492.69;5026040;28;20116;-81
2023/04/18 07:19:37;;;;;;;14.82;9.95;;;;;;;14.70;55.25;94493.31;5033300;28;20017;-81
2023/04/18 07:22:02;;;;;;;11.27;9.32;;;;;;;14.15;55.47;94496.44;5026819;28;20017;-82
2023/04/18 07:24:28;;;;;;;12.45;10.18;;;;;;;14.34;55.88;94497.09;5026173;28;20427;-81
2023/04/18 07:26:53;;;;;;;12.88;9.43;;;;;;;14.47;55.93;94499.66;5009282;28;20469;-83
2023/04/18 07:29:19;;;;;;;13.00;9.57;;;;;;;14.58;55.31;94497.84;5025591;28;20018;-82
2023/04/18 07:31:45;;;;;;;15.70;10.60;;;;;;;14.59;55.09;94504.91;5027642;28;20408;-82
2023/04/18 07:34:12;;;;;;;12.52;9.27;;;;;;;14.72;54.36;94498.34;5024874;28;20029;-82
2023/04/18 07:36:38;;;;;;;15.05;10.13;;;;;;;14.60;53.42;94508.44;5026008;28;20028;-82
2023/04/18 07:39:03;;;;;;;10.98;8.70;;;;;;;14.75;53.44;94508.47;5025128;28;20025;-82
2023/04/18 07:41:29;;;;;;;12.35;9.50;;;;;;;14.69;53.87;94502.09;5025629;28;20048;-81
2023/04/18 07:43:55;;;;;;;11.88;9.57;;;;;;;14.73;53.20;94503.41;5025308;28;20044;-82
2023/04/18 07:46:20;;;;;;;12.07;9.15;;;;;;;14.75;52.88;94508.47;5009077;28;20056;-82
2023/04/18 07:48:45;;;;;;;12.02;9.10;;;;;;;14.74;53.39;94499.44;5008842;28;20083;-82
2023/04/18 07:51:12;;;;;;;12.43;9.00;;;;;;;14.91;53.01;94508.03;5008156;28;20025;-77
2023/04/18 07:53:38;;;;;;;13.40;9.55;;;;;;;15.05;52.84;94503.75;5009199;28;20464;-83
2023/04/18 07:56:04;;;;;;;12.38;8.82;;;;;;;15.06;52.89;94508.03;5024558;28;20036;-92
2023/04/18 07:58:30;;;;;;;12.20;8.13;;;;;;;15.16;52.06;94508.72;5025214;28;20045;-84
2023/04/18 08:00:55;;;;;;;11.25;8.48;;;;;;;15.11;52.17;94518.44;5026276;28;20032;-87
2023/04/18 08:03:21;;;;;;;8.68;6.80;;;;;;;15.10;49.48;94526.00;5009146;28;20025;-87
2023/04/18 08:05:46;;;;;;;9.85;8.10;;;;;;;14.54;50.86;94516.63;5026452;28;20029;-84
2023/04/18 08:08:13;;;;;;;11.10;7.88;;;;;;;14.67;51.43;94515.59;5026176;28;20029;-80
2023/04/18 08:10:38;;;;;;;10.88;7.47;;;;;;;14.32;52.25;94513.38;5009112;28;20048;-85
2023/04/18 08:13:05;;;;;;;10.70;8.20;;;;;;;14.32;52.14;94513.38;5034576;28;20504;-83
2023/04/18 08:15:31;;;;;;;11.43;8.32;;;;;;;14.47;52.22;94517.00;5025592;28;20071;-84
2023/04/18 08:17:57;;;;;;;12.32;8.43;;;;;;;14.66;52.82;94523.16;5023947;28;20045;-83
2023/04/18 08:20:23;;;;;;;11.93;8.60;;;;;;;14.82;53.07;94511.63;5009517;28;20026;-80
2023/04/18 08:22:48;;;;;;;10.15;7.55;;;;;;;14.91;50.31;94513.56;5026040;28;20080;-82
2023/04/18 08:25:13;;;;;;;10.00;7.22;;;;;;;14.99;50.00;94508.41;5008483;28;20419;-83
2023/04/18 08:27:39;;;;;;;9.48;6.50;;;;;;;15.03;50.08;94517.31;5025836;28;20022;-81
2023/04/18 08:30:05;;;;;;;8.45;5.95;;;;;;;15.09;49.07;94513.41;5025749;28;20025;-83
2023/04/18 08:32:31;;;;;;;8.80;5.75;;;;;;;15.18;48.35;94514.53;5008445;28;20604;-84
2023/04/18 08:34:56;;;;;;;8.52;5.20;;;;;;;15.20;47.95;94520.38;5023873;28;20121;-86
2023/04/18 08:37:22;;;;;;;8.60;5.28;;;;;;;15.34;47.25;94525.13;5025207;28;20083;-86
2023/04/18 08:39:47;;;;;;;9.07;6.18;;;;;;;15.58;46.50;94527.78;5024193;28;20029;-83
2023/04/18 08:42:15;;;;;;;9.65;5.95;;;;;;;15.62;46.28;94518.06;5025083;28;20028;-84
2023/04/18 08:44:41;;;;;;;7.60;5.22;;;;;;;15.63;44.12;94514.06;5024417;28;20033;-85
2023/04/18 08:47:08;;;;;;;7.60;5.60;;;;;;;15.66;44.86;94518.66;5007901;28;20030;-83
2023/04/18 08:49:35;;;;;;;7.47;5.82;;;;;;;15.72;45.15;94513.19;5008207;28;20529;-83
2023/04/18 08:52:01;;;;;;;8.73;5.82;;;;;;;15.82;46.39;94511.06;5007281;28;20475;-82
2023/04/18 08:54:29;;;;;;;8.50;5.93;;;;;;;16.08;46.48;94516.75;5024613;28;20037;-80
2023/04/18 08:57:05;;;;;;;8.98;7.20;;;;;;;16.18;46.38;94512.59;5023305;28;20048;-81
2023/04/18 08:59:31;;;;;;;7.03;5.63;;;;;;;16.04;45.28;94507.84;5007828;28;20618;-80
2023/04/18 09:01:57;;;;;;;6.88;5.45;;;;;;;16.11;45.28;94518.53;5023963;28;20032;-80
2023/04/18 09:04:52;;;;;;;6.50;5.28;;;;;;;16.27;45.15;94517.25;5024192;28;20041;-82
2023/04/18 09:07:19;;;;;;;10.23;6.13;;;;;;;16.39;45.19;94516.88;4977268;28;20042;-80
2023/04/18 09:09:50;;;;;;;6.70;5.60;;;;;;;16.48;45.06;94510.47;4966395;28;20049;-81
2023/04/18 09:12:21;;;;;;;8.90;5.75;;;;;;;16.51;45.31;94506.69;4967701;28;20192;-81
2023/04/18 09:14:49;;;;;;;8.20;5.80;;;;;;;16.58;45.10;94505.53;4966776;28;20034;-81
2023/04/18 09:17:44;;;;;;;11.52;6.85;;;;;;;16.68;45.23;94506.91;4967532;28;20517;-80
2023/04/18 09:20:11;;;;;;;11.23;7.88;;;;;;;16.50;46.96;94513.50;4968720;28;20034;-80
2023/04/18 09:22:51;;;;;;;8.45;6.57;;;;;;;16.55;47.95;94515.59;4966603;28;20038;-80
2023/04/18 09:25:33;;;;;;;12.25;7.60;;;;;;;16.41;48.15;94511.63;4967284;28;20038;-79
2023/04/18 09:28:00;;;;;;;9.82;6.78;;;;;;;16.28;48.40;94510.44;4982790;28;20110;-79
2023/04/18 09:30:38;;;;;;;13.55;8.00;;;;;;;16.12;48.78;94504.19;4966798;28;20038;-84
2023/04/18 09:33:10;;;;;;;9.57;6.57;;;;;;;16.05;49.22;94510.13;4967166;28;20030;-81
2023/04/18 09:35:36;;;;;;;8.75;6.25;;;;;;;16.03;49.15;94509.09;4966710;28;20093;-81
2023/04/18 09:38:02;;;;;;;8.15;5.65;;;;;;;15.96;49.46;94515.81;4966986;28;20038;-80
2023/04/18 09:40:28;;;;;;;6.80;5.13;;;;;;;15.82;49.71;94497.97;4961189;28;20081;-82
2023/04/18 09:42:54;;;;;;;8.32;5.68;;;;;;;15.83;50.38;94513.38;4985354;28;20050;-84
2023/04/18 09:45:20;;;;;;;8.07;5.65;;;;;;;15.79;50.06;94515.56;5004241;28;20093;-81
2023/04/18 09:47:46;;;;;;;8.90;5.20;;;;;;;15.70;50.83;94515.66;5002869;28;20025;-90
2023/04/18 09:50:11;;;;;;;10.40;6.90;;;;;;;15.71;50.86;94510.88;5004070;28;20022;-81
2023/04/18 09:52:39;;;;;;;9.80;5.35;;;;;;;15.71;51.31;94514.41;5004505;28;20026;-78
2023/04/18 09:55:06;;;;;;;8.35;4.22;;;;;;;15.88;50.96;94514.66;5003874;28;20088;-81
2023/04/18 09:57:33;;;;;;;5.93;4.10;;;;;;;15.92;50.55;94513.22;5004508;28;20091;-77
2023/04/18 10:00:26;;;;;;;6.03;4.25;;;;;;;16.01;50.43;94511.59;5006071;28;20195;-85
2023/04/18 10:02:58;;;;;;;6.00;3.75;;;;;;;16.07;49.75;94510.44;5013523;28;20041;-85
2023/04/18 10:05:30;;;;;;;4.68;3.00;;;;;;;16.14;49.74;94512.03;5008728;28;20129;-85
2023/04/18 10:07:55;;;;;;;3.67;2.65;;;;;;;16.19;49.64;94509.34;5011432;28;20033;-83
2023/04/18 10:10:21;;;;;;;5.47;2.13;;;;;;;16.25;49.54;94508.66;5010786;28;20033;-89
2023/04/18 10:12:49;;;;;;;5.47;1.90;;;;;;;16.26;49.48;94502.59;5007328;28;20468;-89
2023/04/18 10:15:16;;;;;;;3.30;1.80;;;;;;;16.33;49.62;94502.19;4987548;28;20472;-86
2023/04/18 10:17:42;;;;;;;3.70;2.75;;;;;;;16.38;49.25;94509.06;5005626;28;20026;-89
2023/04/18 10:20:11;;;;;;;5.45;2.90;;;;;;;16.56;49.20;94503.22;5004878;28;20130;-91
2023/04/18 10:22:37;;;;;;;3.85;2.40;;;;;;;16.77;48.47;94497.69;5001925;28;20093;-85
2023/04/18 10:25:02;;;;;;;3.97;1.90;;;;;;;16.90;48.25;94498.09;5002558;28;20022;-85
2023/04/18 10:27:46;;;;;;;4.78;2.67;;;;;;;17.01;47.94;94483.56;5019450;28;20022;-87
2023/04/18 10:30:12;;;;;;;5.63;3.28;;;;;;;17.03;47.53;94479.03;5005722;28;20037;-89
2023/04/18 10:32:38;;;;;;;3.60;2.47;;;;;;;17.10;47.03;94492.50;5004930;28;20030;-84
2023/04/18 10:35:04;;;;;;;4.45;2.47;;;;;;;17.16;46.58;94492.56;5003360;28;20113;-84
2023/04/18 10:37:32;;;;;;;4.65;2.42;;;;;;;17.23;45.26;94489.34;5020100;28;20488;-85
2023/04/18 10:40:05;;;;;;;3.13;2.30;;;;;;;17.27;45.24;94489.13;5003486;28;20034;-88
2023/04/18 10:42:45;;;;;;;3.33;2.10;;;;;;;17.32;45.59;94485.59;5009113;28;20050;-84
2023/04/18 10:45:24;;;;;;;3.65;2.30;;;;;;;17.24;46.03;94490.84;5009453;28;20076;-85
2023/04/18 10:47:50;;;;;;;3.20;2.47;;;;;;;17.29;45.93;94486.59;5007767;28;20504;-85
2023/04/18 10:50:16;;;;;;;3.78;2.30;;;;;;;17.27;45.05;94486.34;5007116;28;20036;-88
2023/04/18 10:52:42;;;;;;;6.25;2.72;;;;;;;17.39;45.06;94493.53;5007587;28;20483;-85
2023/04/18 10:55:08;;;;;;;4.03;2.35;;;;;;;17.41;44.76;94497.31;5021726;28;20052;-88
2023/04/18 10:57:41;;;;;;;3.65;2.13;;;;;;;17.63;44.11;94496.00;5009229;28;20029;-89
2023/04/18 11:00:11;;;;;;;3.53;2.13;;;;;;;18.05;43.01;94496.03;5010195;28;20042;-86
2023/04/18 11:02:37;;;;;;;4.38;2.53;;;;;;;18.33;42.25;94489.13;5006670;28;20033;-82
2023/04/18 11:05:05;;;;;;;5.38;3.28;;;;;;;18.68;40.90;94480.44;5007077;28;20566;-82
2023/04/18 11:07:45;;;;;;;3.72;2.90;;;;;;;19.06;40.53;94481.81;5007921;28;20080;-86
2023/04/18 11:10:11;;;;;;;3.25;2.47;;;;;;;19.15;39.93;94480.81;5006113;28;20105;-92
2023/04/18 11:12:39;;;;;;;3.95;2.75;;;;;;;19.73;39.31;94478.34;5009399;28;20121;-92
2023/04/18 11:15:13;;;;;;;3.30;1.77;;;;;;;20.50;37.27;94479.47;5008014;28;20104;-88
2023/04/18 11:17:39;;;;;;;2.70;1.80;;;;;;;21.38;36.22;94470.41;5007243;28;20030;-86
2023/04/18 11:20:13;;;;;;;3.35;2.30;;;;;;;22.41;34.87;94472.53;5006280;28;20405;-84
2023/04/18 11:22:47;;;;;;;4.32;1.52;;;;;;;23.54;31.95;94469.81;5007629;28;20038;-88